Latest Weather Observations for Cerberus

IDV60801

Issued at 10:05 am EST Wednesday 3 September 2014 (issued every 30 minutes, with the page automatically refreshed every 10 minutes)

About weather observations | Map of weather stations | Latest weather observations for VIC | Other Formats
Station Details ID: 086361 Name: CERBERUS Lat: -38.36 Lon: 145.18 Height: 12.69 m
Data from the previous 72 hours. | See also: Recent months at Cerberus
Date/Time
EST
Temp
°C
App
Temp
°C
Dew
Point
Rel
Hum
%
Delta-T
°C
Wind Press
QNH
hPa
Press
MSL
hPa
Rain
since 9 am
mm
Dir
 
Spd
km/h
Gust
km/h
Spd
kts
Gust
kts
03/10:00am 13.1 9.8 4.8 57 3.8 SSE 11 19 6 10 1023.1 1023.1 0.0
03/09:30am 11.9 8.6 4.4 60 3.4 SSE 11 17 6 9 1023.3 1023.3 0.0
03/09:00am 11.6 8.8 5.3 65 2.9 S 9 13 5 7 1023.4 1023.4 0.0
03/08:30am 11.4 8.5 4.8 64 3.0 SSE 9 17 5 9 1023.3 1023.3 0.0
03/08:00am 11.2 8.3 4.7 64 2.9 SSE 9 17 5 9 1023.3 1023.3 0.0
03/07:30am 10.1 7.7 4.5 68 2.5 SSE 6 11 3 6 1023.1 1023.1 0.0
03/07:00am 10.0 7.4 4.2 67 2.6 S 7 11 4 6 1022.7 1022.7 0.0
03/06:30am 9.7 6.4 2.6 61 3.0 S 9 17 5 9 1022.6 1022.6 0.0
03/06:00am 10.3 6.8 3.6 63 2.9 S 11 17 6 9 1022.4 1022.4 0.0
03/05:30am 10.3 7.2 3.8 64 2.9 SSE 9 17 5 9 1022.3 1022.3 0.0
03/05:00am 10.2 7.4 3.0 61 3.1 S 7 22 4 12 1022.2 1022.2 0.0
03/04:30am 10.4 5.0 1.5 54 3.7 SSW 19 30 10 16 1022.2 1022.2 0.0
03/04:00am 10.7 6.5 4.0 63 3.0 S 15 24 8 13 1022.0 1022.0 0.0
03/03:30am 10.3 5.8 2.4 58 3.4 SSW 15 24 8 13 1022.1 1022.1 0.0
03/03:00am 10.1 5.7 2.9 61 3.1 SSW 15 28 8 15 1022.1 1022.1 0.0
03/02:30am 10.4 6.1 3.2 61 3.1 SSW 15 24 8 13 1022.2 1022.2 0.0
03/02:00am 10.8 7.1 4.3 64 2.9 SSW 13 26 7 14 1022.5 1022.5 0.0
03/01:30am 10.8 6.2 3.8 62 3.1 SSW 17 28 9 15 1022.6 1022.6 0.0
03/01:00am 10.7 5.9 4.6 66 2.7 SSW 19 28 10 15 1022.6 1022.6 0.0
03/12:30am 10.5 6.2 5.1 69 2.5 SSW 17 30 9 16 1022.5 1022.5 0.0
03/12:00am 10.7 5.8 5.3 69 2.5 S 20 37 11 20 1022.5 1022.5 0.0
 
Date/Time
EST
Temp
°C
App
Temp
°C
Dew
Point
Rel
Hum
%
Delta-T
°C
Wind Press
QNH
hPa
Press
MSL
hPa
Rain
since 9 am
mm
Dir
 
Spd
km/h
Gust
km/h
Spd
kts
Gust
kts
02/11:30pm 10.7 6.0 5.3 69 2.5 SSW 19 30 10 16 1022.6 1022.6 0.0
02/11:00pm 10.8 5.6 5.6 70 2.4 SSW 22 33 12 18 1022.6 1022.6 0.0
02/10:30pm 10.8 6.6 5.6 70 2.4 SSW 17 30 9 16 1022.7 1022.7 0.0
02/10:00pm 10.8 6.7 6.2 73 2.1 SW 17 30 9 16 1022.8 1022.8 0.0
02/09:30pm 11.1 6.5 5.4 68 2.6 SSW 19 28 10 15 1022.6 1022.6 0.0
02/09:00pm 11.2 7.2 4.9 65 2.9 SSW 15 26 8 14 1022.7 1022.7 0.0
02/08:30pm 11.4 7.1 5.1 65 2.9 S 17 30 9 16 1022.5 1022.5 0.0
02/08:00pm 10.7 6.5 5.5 70 2.4 SW 17 28 9 15 1022.4 1022.4 0.0
02/07:30pm 11.0 6.5 4.0 62 3.1 S 17 32 9 17 1022.2 1022.2 0.0
02/07:00pm 11.1 6.6 4.1 62 3.1 S 17 28 9 15 1021.8 1021.8 0.0
02/06:30pm 10.8 6.3 4.0 63 3.0 S 17 26 9 14 1021.7 1021.7 0.0
02/06:00pm 11.1 6.1 4.6 64 2.9 S 20 28 11 15 1021.2 1021.2 0.0
02/05:30pm 11.3 6.4 4.1 61 3.2 S 19 33 10 18 1020.8 1020.8 0.0
02/05:00pm 11.6 6.1 3.9 59 3.4 S 22 32 12 17 1020.6 1020.6 0.0
02/04:30pm 11.7 6.6 4.2 60 3.4 S 20 35 11 19 1020.4 1020.4 0.0
02/04:00pm 11.9 6.8 4.2 59 3.5 S 20 32 11 17 1020.1 1020.1 0.0
02/03:30pm 12.9 7.1 4.6 57 3.8 S 24 37 13 20 1020.0 1020.0 0.0
02/03:00pm 13.1 6.9 4.3 55 4.0 S 26 37 14 20 1019.9 1019.9 0.0
02/02:30pm 13.7 8.0 4.8 55 4.1 S 24 37 13 20 1019.7 1019.7 0.0
02/02:00pm 13.2 6.9 3.8 53 4.2 S 26 43 14 23 1019.4 1019.4 0.0
02/01:30pm 13.2 6.9 3.6 52 4.3 S 26 43 14 23 1019.1 1019.1 0.0
02/01:01pm 13.2 6.4 3.3 51 4.4 S 28 46 15 25 1018.9 1018.9 0.0
02/01:00pm 13.4 6.7 3.8 52 4.3 S 28 43 15 23 1018.9 1018.9 0.0
02/12:48pm 13.3 6.7 4.2 54 4.1 S 28 46 15 25 1018.9 1018.9 0.0
02/12:30pm 13.7 7.4 5.6 58 3.8 S 28 41 15 22 1018.8 1018.8 0.0
02/12:00pm 13.3 7.3 5.5 59 3.6 SSW 26 39 14 21 1018.6 1018.6 0.0
02/11:30am 13.4 8.0 6.5 63 3.3 SSW 24 35 13 19 1018.5 1018.5 0.0
02/11:00am 13.0 7.4 7.0 67 2.9 SSW 26 41 14 22 1018.4 1018.4 0.0
02/10:30am 12.8 7.7 6.2 64 3.1 SSW 22 33 12 18 1018.3 1018.3 0.0
02/10:00am 13.3 8.8 6.9 65 3.1 SSW 20 33 11 18 1018.2 1018.2 0.0
02/09:30am 12.8 7.8 6.4 65 3.0 S 22 35 12 19 1017.7 1017.7 0.0
02/09:00am 12.4 6.9 5.8 64 3.1 SSW 24 35 13 19 1017.4 1017.4 5.8
02/08:30am 12.3 7.5 5.7 64 3.1 SSW 20 28 11 15 1017.0 1017.0 5.8
02/08:00am 12.0 7.3 5.9 66 2.8 S 20 33 11 18 1016.6 1016.6 5.8
02/07:30am 11.0 7.0 6.6 74 2.1 SSW 17 26 9 14 1016.2 1016.2 5.8
02/07:00am 10.4 6.3 6.4 76 1.9 S 17 24 9 13 1015.8 1015.8 5.8
02/06:30am 9.3 5.9 5.9 79 1.6 S 13 26 7 14 1015.5 1015.5 5.8
02/06:00am 10.1 6.9 4.9 70 2.3 SSW 11 19 6 10 1015.0 1015.0 5.6
02/05:30am 10.5 7.6 6.6 77 1.8 SSW 11 19 6 10 1014.6 1014.6 5.6
02/05:00am 10.3 6.4 7.0 80 1.6 SSW 17 26 9 14 1014.3 1014.3 5.6
02/04:30am 9.9 5.3 6.3 78 1.7 S 20 35 11 19 1013.9 1013.9 5.6
02/04:00am 8.8 6.6 6.4 85 1.1 WSW 7 13 4 7 1013.4 1013.5 5.6
02/03:30am 9.1 6.9 6.4 83 1.2 W 7 11 4 6 1013.4 1013.5 5.6
02/03:00am 9.9 7.6 7.5 85 1.1 WSW 9 15 5 8 1013.1 1013.2 5.6
02/02:30am 9.5 7.5 7.3 86 1.0 W 7 11 4 6 1012.9 1013.0 5.6
02/02:00am 9.3 7.3 7.1 86 1.0 W 7 13 4 7 1012.9 1013.0 5.6
02/01:30am 9.0 7.5 6.6 85 1.1 W 4 6 2 3 1012.9 1013.0 5.6
02/01:00am 9.4 7.3 6.8 84 1.2 W 7 11 4 6 1012.7 1012.8 5.4
02/12:30am 9.4 6.6 7.0 85 1.1 WNW 11 17 6 9 1012.6 1012.7 5.4
02/12:00am 9.7 7.9 7.0 83 1.3 W 6 9 3 5 1012.4 1012.5 4.8
 
Date/Time
EST
Temp
°C
App
Temp
°C
Dew
Point
Rel
Hum
%
Delta-T
°C
Wind Press
QNH
hPa
Press
MSL
hPa
Rain
since 9 am
mm
Dir
 
Spd
km/h
Gust
km/h
Spd
kts
Gust
kts
01/11:30pm 10.2 7.6 7.8 85 1.2 W 11 15 6 8 1012.3 1012.4 4.8
01/11:00pm 10.2 9.3 7.6 84 1.2 WNW 2 4 1 2 1012.1 1012.2 4.8
01/10:30pm 10.4 8.8 7.8 84 1.3 WNW 6 7 3 4 1012.1 1012.2 4.8
01/10:00pm 10.3 8.5 7.9 85 1.2 WNW 7 9 4 5 1012.1 1012.2 4.8
01/09:30pm 10.6 8.9 7.7 82 1.4 WNW 6 7 3 4 1011.6 1011.7 4.8
01/09:00pm 11.4 9.5 7.7 78 1.8 SW 7 13 4 7 1011.5 1011.6 4.8
01/08:30pm 11.5 9.0 8.2 80 1.6 SW 11 17 6 9 1011.1 1011.2 4.8
01/08:00pm 11.7 9.3 8.7 82 1.5 SW 11 19 6 10 1010.9 1010.9 4.8
01/07:30pm 11.6 9.4 9.2 85 1.2 SSW 11 20 6 11 1010.6 1010.6 4.8
01/07:00pm 10.8 9.2 8.7 87 1.0 W 7 11 4 6 1010.3 1010.3 4.8
01/06:30pm 11.0 9.0 8.8 86 1.1 WSW 9 13 5 7 1010.0 1010.0 4.8
01/06:00pm 11.6 8.7 9.5 87 1.1 SW 15 20 8 11 1009.7 1009.7 4.8
01/05:30pm 11.5 10.2 9.8 89 0.9 WSW 7 13 4 7 1009.2 1009.2 4.8
01/05:00pm 11.5 10.2 9.8 89 0.9 W 7 13 4 7 1008.9 1008.9 4.8
01/04:30pm 11.6 10.5 9.9 89 0.9 W 6 9 3 5 1008.5 1008.5 4.8
01/04:00pm 11.5 10.4 9.8 89 0.9 W 6 13 3 7 1008.4 1008.4 4.6
01/03:30pm 11.5 11.1 9.8 89 0.9 WNW 2 4 1 2 1008.2 1008.2 4.6
01/03:00pm 11.4 9.2 9.5 88 1.0 W 11 20 6 11 1008.4 1008.4 4.2
01/02:30pm 11.9 9.4 9.8 87 1.1 WNW 13 20 7 11 1007.9 1007.9 2.6
01/02:00pm 11.8 9.7 9.9 88 1.0 NW 11 19 6 10 1007.8 1007.8 2.4
01/01:30pm 12.1 9.7 10.0 87 1.1 NW 13 20 7 11 1008.1 1008.1 2.0
01/01:00pm 12.0 10.3 9.9 87 1.1 NW 9 17 5 9 1008.2 1008.2 1.8
01/12:30pm 11.7 9.6 9.6 87 1.1 WNW 11 19 6 10 1008.4 1008.4 1.8
01/12:00pm 11.6 9.8 9.3 86 1.2 NW 9 15 5 8 1008.2 1008.2 1.4
01/11:30am 11.4 8.7 9.0 85 1.2 NW 13 19 7 10 1008.3 1008.3 1.2
01/11:00am 11.3 7.9 7.8 79 1.7 NW 15 22 8 12 1008.5 1008.5 0.8
01/10:30am 13.0 9.5 7.0 67 2.9 NW 15 24 8 13 1008.4 1008.4 0.0
01/10:00am 14.2 10.7 7.0 62 3.5 NNW 15 26 8 14 1008.8 1008.8 0.0
01/09:30am 14.0 10.3 6.4 60 3.7 NNW 15 24 8 13 1008.6 1008.7 0.0
01/09:00am 13.5 10.6 6.6 63 3.3 NNW 11 20 6 11 1008.1 1008.2 0.0
01/08:30am 14.3 9.8 5.9 57 4.0 NW 19 33 10 18 1008.4 1008.5 0.0
01/08:00am 14.2 10.9 6.6 60 3.7 NW 13 22 7 12 1008.2 1008.3 0.0
01/07:30am 15.0 12.0 5.8 54 4.4 NNW 11 22 6 12 1007.9 1008.0 0.0
01/07:00am 14.9 11.8 5.7 54 4.4 NNW 11 17 6 9 1007.6 1007.7 0.0
01/06:30am 14.8 11.4 6.1 56 4.2 NW 13 20 7 11 1007.9 1008.0 0.0
01/06:00am 16.1 12.5 4.8 47 5.3 WNW 13 20 7 11 1007.8 1007.9 0.0
01/05:30am 17.2 12.6 3.8 41 6.2 N 17 32 9 17 1007.2 1007.3 0.0
01/05:00am 17.2 13.4 3.8 41 6.3 N 13 32 7 17 1007.1 1007.2 0.0
01/04:30am 17.1 12.6 4.1 42 6.1 NNE 17 35 9 19 1006.8 1006.9 0.0
01/04:00am 17.3 12.7 3.9 41 6.3 N 17 28 9 15 1007.6 1007.7 0.0
01/03:30am 17.4 12.9 4.4 42 6.1 N 17 39 9 21 1007.7 1007.8 0.0
01/03:00am 17.4 13.7 4.4 42 6.2 N 13 24 7 13 1008.1 1008.2 0.0
01/02:30am 17.7 12.6 4.3 41 6.3 N 20 46 11 25 1008.2 1008.3 0.0
01/02:00am 17.2 13.3 5.2 45 5.8 N 15 30 8 16 1008.6 1008.7 0.0
01/01:30am 17.1 13.6 5.4 46 5.6 N 13 22 7 12 1009.2 1009.3 0.0
01/01:00am 17.0 12.8 5.6 47 5.5 N 17 26 9 14 1009.6 1009.7 0.0
01/12:30am 17.6 14.1 5.5 45 5.9 N 13 26 7 14 1009.6 1009.7 0.0
01/12:00am 17.5 14.5 5.8 46 5.7 N 11 20 6 11 1009.7 1009.8 0.0
 
Date/Time
EST
Temp
°C
App
Temp
°C
Dew
Point
Rel
Hum
%
Delta-T
°C
Wind Press
QNH
hPa
Press
MSL
hPa
Rain
since 9 am
mm
Dir
 
Spd
km/h
Gust
km/h
Spd
kts
Gust
kts
31/11:30pm 17.3 14.7 6.2 48 5.4 N 9 17 5 9 1010.0 1010.1 0.0
31/11:00pm 15.8 13.9 7.6 58 4.1 NNE 7 15 4 8 1010.0 1010.1 0.0
31/10:30pm 15.0 12.4 7.8 62 3.6 NE 11 19 6 10 1010.0 1010.1 0.0
31/10:00pm 16.1 13.6 6.5 53 4.7 NNE 9 17 5 9 1011.0 1011.1 0.0
31/09:30pm 14.9 13.3 8.2 64 3.4 NNE 6 13 3 7 1011.5 1011.6 0.0
31/09:00pm 15.9 13.6 7.4 57 4.2 NNE 9 15 5 8 1011.9 1012.0 0.0
31/08:30pm 17.1 14.2 6.6 50 5.2 N 11 22 6 12 1012.2 1012.3 0.0
31/08:00pm 17.3 14.1 6.8 50 5.2 N 13 22 7 12 1012.6 1012.7 0.0
31/07:30pm 17.3 14.1 6.8 50 5.2 N 13 24 7 13 1012.6 1012.7 0.0
31/07:00pm 17.3 14.9 6.8 50 5.2 N 9 19 5 10 1012.7 1012.8 0.0
31/06:30pm 17.4 14.8 6.3 48 5.5 N 9 17 5 9 1012.9 1013.0 0.0
31/06:00pm 17.9 15.8 6.7 48 5.6 N 7 15 4 8 1013.1 1013.2 0.0
31/05:30pm 18.2 16.0 6.4 46 5.8 N 7 13 4 7 1013.1 1013.2 0.0
31/05:00pm 19.3 16.6 5.7 41 6.7 N 9 17 5 9 1012.9 1013.0 0.0
31/04:30pm 19.9 16.5 5.9 40 6.9 N 13 20 7 11 1012.8 1012.9 0.0
31/04:00pm 19.4 16.1 6.2 42 6.6 N 13 20 7 11 1013.1 1013.2 0.0
31/03:30pm 19.4 15.3 6.2 42 6.6 N 17 28 9 15 1013.4 1013.5 0.0
31/03:00pm 19.9 15.1 5.5 39 7.1 N 20 35 11 19 1013.8 1013.8 0.0
31/02:30pm 19.9 15.8 6.3 41 6.8 N 17 28 9 15 1014.3 1014.3 0.0
31/02:00pm 19.8 15.0 5.8 40 6.9 N 20 35 11 19 1014.5 1014.5 0.0
31/01:30pm 19.9 16.1 5.9 40 6.9 N 15 30 8 16 1014.8 1014.8 0.0
31/01:00pm 20.5 15.8 6.1 39 7.2 N 20 39 11 21 1015.2 1015.2 0.0
31/12:30pm 20.1 15.3 5.4 38 7.2 NNW 20 39 11 21 1015.6 1015.6 0.0
31/12:00pm 20.1 14.9 5.7 39 7.1 NNW 22 33 12 18 1016.1 1016.1 0.0
31/11:30am 19.8 16.1 6.2 41 6.8 N 15 30 8 16 1016.8 1016.8 0.0
31/11:00am 18.9 14.8 6.1 43 6.3 N 17 33 9 18 1017.0 1017.0 0.0
31/10:30am 18.4 14.5 7.2 48 5.6 NNW 17 28 9 15 1017.3 1017.3 0.0

Other Formats:

Comma delimited format used in spreadsheet applications
http://www.bom.gov.au/fwo/IDV60801/IDV60801.94898.axf

JavaScript Object Notation format (JSON) in row-major order
http://www.bom.gov.au/fwo/IDV60801/IDV60801.94898.json